Palisade, CO

10:41 PM MDT on July 06, 2015 (GMT -0600)
Rapid Creek Road | | Change Station
CLOSE
Current Station
Personal Weather Station
Location: Palisade, CO
Elevation: 4980 ft
Nearby Weather Stations

Elev 4980 ft 39.13 °N, 108.32 °W | Updated 6 minutes ago

Mostly Cloudy
Mostly Cloudy
74.8 °F
Feels Like 77 °F
N
1.0
Wind Variable Wind from SSW
Gusts 2.0 mph

Today
High -- | Low -- °F
--% Chance of Precip.
Yesterday
High -- | Low -- °F
Precip. -- in
5:53 AM 8:41 PM
Waning Gibbous, 69% visible
Pressure 29.92 in
Visibility 10.0 miles
Clouds Mostly Cloudy 11000 ft
Heat Index 77 °F
Dew Point 48 °F
Humidity 38%
Rainfall 0.01 in
Snow Depth Not available.
UV 0 out of 12
Pollen 3.20 out of 12
Air Quality Not available.
Flu Activity Not available.
METAR KGJT 070353Z AUTO 24007KT 10SM -RA BKN110 21/13 A3011 RMK AO2 LTG DSNT NE RAB03 SLP132 P0000 T02060128

More Conditions Fewer Conditions

Pressure 29.92 in
Visibility 10.0 miles
Clouds Mostly Cloudy 11000 ft
Heat Index 77 °F
Dew Point 48 °F
Humidity 38%
Rainfall 0.01 in
Snow Depth Not available.
UV 0 out of 12
Pollen 3.20 out of 12
Air Quality Not available.
Flu Activity Not available.
METAR KGJT 070353Z AUTO 24007KT 10SM -RA BKN110 21/13 A3011 RMK AO2 LTG DSNT NE RAB03 SLP132 P0000 T02060128

More Conditions Fewer Conditions

10-Day Weather Forecast

×

Almanac

Astronomy

Jul. 06, 2015 Rise Set
Actual Time
Civil Twilight
Nautical Twilight
Astronomical Twilight
Moon
Length of Visible Light
Length of Day
Tomorrow will be .
, % of the Moon is Illuminated

Today's Extremes

State Highs State Lows

Community

WunderPhotos

Upload Photos

1,835,728 photos uploaded!

WunderBlogs® & News

Nearby

Air Quality

  Air Quality AQ Index Pollutant
Not available.

Snow Depth

Station Depth Elevation

Earthquake Activity

City Distance Mag. Time & Date
Minimum magnitude displayed is 2.5.

Coastal Water Temperatures

Place Temperature

Stations

Nearby Weather Stations

Station Location Temp. Windchill Dew Point Humidity Wind Precip. Elev Updated Type